Time;durP1;ratioP1;P1;durP2;ratioP2;P2;SDS_P1;SDS_P2;PMS_P1;PMS_P2;Temp;Humidity;BMP_temperature;BMP_pressure;BME280_temperature;BME280_humidity;BME280_pressure;Samples;Min_cycle;Max_cycle;Signal;HPM_P1;HPM_P2
2022/10/30 00:01:35;;;;;;;39.73;24.60;;;16.70;99.90;;;;;;5033147;28;20441;-43
2022/10/30 00:04:02;;;;;;;31.70;24.07;;;17.00;99.90;;;;;;5033306;28;20443;-46
2022/10/30 00:06:30;;;;;;;24.17;21.40;;;16.80;99.90;;;;;;5033575;28;20434;-43
2022/10/30 00:08:57;;;;;;;28.47;23.63;;;16.80;99.90;;;;;;5034379;28;20454;-47
2022/10/30 00:11:24;;;;;;;28.90;22.50;;;17.00;99.90;;;;;;5034739;28;20816;-45
2022/10/30 00:13:51;;;;;;;31.70;24.10;;;17.00;99.90;;;;;;5034666;28;20445;-45
2022/10/30 00:16:17;;;;;;;30.53;24.23;;;16.80;99.90;;;;;;5035093;28;20936;-46
2022/10/30 00:18:44;;;;;;;30.37;24.30;;;16.70;99.90;;;;;;5033868;28;20801;-45
2022/10/30 00:21:13;;;;;;;29.07;23.57;;;16.50;99.90;;;;;;5033572;28;20475;-48
2022/10/30 00:23:45;;;;;;;27.60;23.93;;;16.80;99.90;;;;;;5032844;28;20552;-45
2022/10/30 00:26:13;;;;;;;30.90;25.10;;;16.90;99.90;;;;;;5032730;28;20485;-44
2022/10/30 00:28:40;;;;;;;33.90;25.60;;;16.90;99.90;;;;;;5032263;28;20788;-45
2022/10/30 00:31:07;;;;;;;31.80;22.57;;;16.70;99.90;;;;;;5032478;28;20441;-44
2022/10/30 00:33:34;;;;;;;25.80;23.10;;;16.80;99.90;;;;;;5031394;28;20491;-45
2022/10/30 00:36:01;;;;;;;27.07;24.17;;;16.60;99.90;;;;;;5032710;28;20444;-45
2022/10/30 00:38:27;;;;;;;34.07;23.93;;;16.70;99.90;;;;;;5030987;28;20848;-44
2022/10/30 00:40:54;;;;;;;33.60;24.30;;;16.40;99.90;;;;;;5032421;28;20542;-44
2022/10/30 00:43:31;;;;;;;35.33;24.70;;;16.20;99.90;;;;;;5031252;28;21041;-44
2022/10/30 00:46:01;;;;;;;33.03;24.43;;;16.60;99.90;;;;;;5032216;28;20576;-44
2022/10/30 00:48:28;;;;;;;28.23;23.07;;;16.50;99.90;;;;;;5032195;28;20428;-45
2022/10/30 00:50:56;;;;;;;30.47;24.93;;;16.50;99.90;;;;;;5032343;28;20485;-44
2022/10/30 00:53:23;;;;;;;32.17;23.90;;;16.40;99.90;;;;;;5030938;28;20463;-43
2022/10/30 00:55:54;;;;;;;34.00;26.50;;;16.40;99.90;;;;;;5032118;28;20447;-44
2022/10/30 00:58:25;;;;;;;28.90;23.70;;;16.50;99.90;;;;;;5032285;28;20429;-43
2022/10/30 01:00:56;;;;;;;32.30;27.03;;;16.50;99.90;;;;;;5031942;28;20457;-43
2022/10/30 01:03:24;;;;;;;36.10;27.33;;;16.40;99.90;;;;;;5030414;28;20439;-44
2022/10/30 01:05:54;;;;;;;33.23;27.63;;;16.40;99.90;;;;;;5030892;28;20485;-44
2022/10/30 01:08:21;;;;;;;33.17;27.13;;;16.30;99.90;;;;;;5030696;28;20458;-49
2022/10/30 01:10:48;;;;;;;34.70;26.83;;;16.80;99.90;;;;;;5030443;28;20496;-45
2022/10/30 01:13:17;;;;;;;28.93;25.97;;;16.20;99.90;;;;;;5030569;28;20461;-44
2022/10/30 01:15:56;;;;;;;36.90;25.80;;;16.30;99.90;;;;;;5031289;28;20452;-46
2022/10/30 01:18:34;;;;;;;34.40;27.47;;;16.10;99.90;;;;;;5030842;28;20440;-46
2022/10/30 01:21:20;;;;;;;31.80;28.27;;;16.00;99.90;;;;;;5029993;28;20452;-44
2022/10/30 01:24:02;;;;;;;31.07;26.53;;;16.10;99.90;;;;;;5031911;28;20424;-44
2022/10/30 01:26:37;;;;;;;29.70;26.57;;;16.00;99.90;;;;;;5031765;28;21036;-45
2022/10/30 01:29:18;;;;;;;33.03;26.77;;;16.30;99.90;;;;;;5029944;28;20852;-43
2022/10/30 01:31:57;;;;;;;32.37;26.40;;;16.10;99.90;;;;;;5030284;28;20486;-44
2022/10/30 01:34:38;;;;;;;36.60;25.37;;;16.20;99.90;;;;;;5030260;28;20550;-46
2022/10/30 01:37:10;;;;;;;34.30;25.90;;;16.00;99.90;;;;;;5030355;28;20452;-45
2022/10/30 01:39:39;;;;;;;36.10;24.70;;;16.20;99.90;;;;;;5029736;28;20484;-45
2022/10/30 01:42:11;;;;;;;32.00;24.93;;;16.30;99.90;;;;;;5030190;28;20506;-44
2022/10/30 01:44:38;;;;;;;28.90;24.37;;;16.30;99.90;;;;;;5030298;28;20553;-44
2022/10/30 01:47:20;;;;;;;33.20;25.57;;;16.10;99.90;;;;;;5029877;28;20457;-44
2022/10/30 01:50:08;;;;;;;28.87;24.83;;;15.70;99.90;;;;;;5029836;28;20996;-44
2022/10/30 01:52:40;;;;;;;29.53;24.33;;;16.10;99.90;;;;;;5030392;28;20477;-46
2022/10/30 01:55:16;;;;;;;33.30;24.80;;;15.90;99.90;;;;;;5030148;28;20980;-44
2022/10/30 01:57:51;;;;;;;34.73;24.53;;;16.10;99.90;;;;;;5030285;28;20448;-44
2022/10/30 02:00:18;;;;;;;28.40;24.80;;;16.00;99.90;;;;;;5029578;28;20478;-44
2022/10/30 02:02:48;;;;;;;25.83;20.33;;;16.20;99.90;;;;;;5029855;28;20973;-43
2022/10/30 02:05:24;;;;;;;32.23;24.07;;;16.00;99.90;;;;;;5029639;28;20530;-45
2022/10/30 02:07:51;;;;;;;27.40;24.07;;;15.60;99.90;;;;;;5029917;28;20450;-46
2022/10/30 02:10:18;;;;;;;27.60;23.13;;;16.00;99.90;;;;;;5029532;28;20468;-44
2022/10/30 02:12:45;;;;;;;28.50;24.30;;;16.30;99.90;;;;;;5029847;28;20433;-44
2022/10/30 02:15:12;;;;;;;31.40;24.33;;;15.80;99.90;;;;;;5030007;28;20521;-44
2022/10/30 02:17:39;;;;;;;30.83;24.93;;;16.00;99.90;;;;;;5029911;28;20451;-44
2022/10/30 02:20:07;;;;;;;29.83;24.70;;;15.90;99.90;;;;;;5029314;28;20469;-44
2022/10/30 02:22:35;;;;;;;27.30;24.23;;;15.80;99.90;;;;;;5031186;28;20431;-45
2022/10/30 02:25:02;;;;;;;28.97;23.47;;;15.40;99.90;;;;;;5029832;28;20481;-44
2022/10/30 02:27:29;;;;;;;28.20;23.63;;;15.40;99.90;;;;;;5029964;28;20451;-44
2022/10/30 02:29:55;;;;;;;28.83;22.90;;;15.60;99.90;;;;;;5030765;28;20475;-44
2022/10/30 02:32:22;;;;;;;43.53;24.67;;;15.60;99.90;;;;;;5031123;28;20434;-45
2022/10/30 02:34:48;;;;;;;38.27;24.70;;;15.70;99.90;;;;;;5029860;28;20985;-44
2022/10/30 02:37:15;;;;;;;29.23;24.57;;;15.60;99.90;;;;;;5031256;28;20919;-44
2022/10/30 02:39:43;;;;;;;26.90;23.00;;;15.80;99.90;;;;;;5030713;28;20478;-44
2022/10/30 02:42:10;;;;;;;29.40;21.00;;;15.70;99.90;;;;;;5033556;28;20451;-44
2022/10/30 02:44:37;;;;;;;29.80;25.13;;;15.40;99.90;;;;;;5033531;28;20455;-44
2022/10/30 02:47:04;;;;;;;27.77;22.17;;;15.50;99.90;;;;;;5034749;28;20473;-44
2022/10/30 02:49:30;;;;;;;26.77;20.80;;;15.80;99.90;;;;;;5032917;28;20467;-45
2022/10/30 02:51:57;;;;;;;27.47;23.27;;;15.60;99.90;;;;;;5033801;28;20510;-44
2022/10/30 02:54:24;;;;;;;26.90;23.07;;;15.40;99.90;;;;;;5033874;28;20502;-44
2022/10/30 02:56:52;;;;;;;34.13;25.43;;;15.60;99.90;;;;;;5037207;28;20445;-43
2022/10/30 02:59:21;;;;;;;30.97;24.17;;;15.50;99.90;;;;;;5038157;28;20546;-44
2022/10/30 03:01:49;;;;;;;27.10;23.10;;;15.90;99.90;;;;;;5035078;28;20455;-44
2022/10/30 03:04:16;;;;;;;29.37;23.40;;;15.60;99.90;;;;;;5036917;28;20456;-43
2022/10/30 03:06:43;;;;;;;27.10;21.43;;;15.40;99.90;;;;;;5037953;28;20471;-45
2022/10/30 03:09:09;;;;;;;27.77;24.07;;;15.40;99.90;;;;;;5035967;28;20863;-45
2022/10/30 03:11:36;;;;;;;26.23;23.40;;;15.40;99.90;;;;;;5034719;28;20442;-44
2022/10/30 03:14:04;;;;;;;27.30;23.40;;;14.90;99.90;;;;;;5034532;28;20495;-45
2022/10/30 03:16:32;;;;;;;28.13;23.63;;;15.30;99.90;;;;;;5032944;28;20466;-44
2022/10/30 03:18:59;;;;;;;33.53;25.00;;;15.70;99.90;;;;;;5032668;28;20897;-46
2022/10/30 03:21:27;;;;;;;27.37;24.43;;;15.40;99.90;;;;;;5033163;28;20829;-44
2022/10/30 03:23:55;;;;;;;32.57;24.03;;;14.90;99.90;;;;;;5033166;28;20451;-44
2022/10/30 03:26:22;;;;;;;27.37;24.20;;;15.20;99.90;;;;;;5033321;28;20474;-45
2022/10/30 03:28:56;;;;;;;27.00;24.20;;;15.50;99.90;;;;;;5032687;28;21022;-44
2022/10/30 03:31:24;;;;;;;27.80;23.70;;;15.40;99.90;;;;;;5032861;28;20521;-46
2022/10/30 03:34:07;;;;;;;29.90;24.00;;;15.10;99.90;;;;;;5034133;28;20447;-46
2022/10/30 03:36:34;;;;;;;32.57;24.33;;;15.10;99.90;;;;;;5034427;28;20442;-45
2022/10/30 03:39:00;;;;;;;27.10;23.47;;;15.50;99.90;;;;;;5032376;28;20474;-44
2022/10/30 03:41:27;;;;;;;30.47;23.10;;;15.20;99.90;;;;;;5032788;28;20434;-45
2022/10/30 03:43:54;;;;;;;27.63;21.87;;;14.90;99.90;;;;;;5034025;28;20436;-45
2022/10/30 03:46:21;;;;;;;22.03;19.43;;;15.60;99.90;;;;;;5032668;28;20463;-44
2022/10/30 03:48:50;;;;;;;35.83;22.30;;;15.40;99.90;;;;;;5031954;28;20446;-44
2022/10/30 03:51:17;;;;;;;31.83;22.03;;;15.20;99.90;;;;;;5032452;28;20760;-44
2022/10/30 03:53:46;;;;;;;22.60;20.27;;;15.30;99.90;;;;;;5032539;28;20455;-44
2022/10/30 03:56:13;;;;;;;29.27;21.50;;;15.30;99.90;;;;;;5032301;28;20452;-43
2022/10/30 03:58:45;;;;;;;26.40;20.37;;;15.50;99.90;;;;;;5032069;28;20962;-44
2022/10/30 04:01:14;;;;;;;27.13;21.50;;;14.90;99.90;;;;;;5033563;28;20440;-46
2022/10/30 04:03:43;;;;;;;32.77;23.83;;;15.30;99.90;;;;;;5033148;28;20539;-43
2022/10/30 04:06:12;;;;;;;25.13;20.50;;;15.60;99.90;;;;;;5033378;28;20483;-43
2022/10/30 04:08:39;;;;;;;24.03;18.30;;;15.00;99.90;;;;;;5034240;28;20451;-44
2022/10/30 04:11:06;;;;;;;25.60;22.90;;;16.10;99.90;;;;;;5035629;28;20538;-44
2022/10/30 04:13:32;;;;;;;31.40;23.03;;;15.60;99.90;;;;;;5035259;28;20522;-46
2022/10/30 04:15:59;;;;;;;38.23;21.77;;;15.50;99.90;;;;;;5036415;28;20531;-45
2022/10/30 04:18:26;;;;;;;26.70;20.43;;;15.30;99.90;;;;;;5034338;28;20444;-45
2022/10/30 04:20:53;;;;;;;27.83;22.47;;;15.60;99.90;;;;;;5032296;28;20530;-45
2022/10/30 04:23:22;;;;;;;20.43;17.80;;;15.40;99.90;;;;;;5032060;28;20450;-47
2022/10/30 04:25:49;;;;;;;30.03;20.90;;;15.50;99.90;;;;;;5031876;28;20584;-44
2022/10/30 04:28:16;;;;;;;26.90;21.90;;;15.20;99.90;;;;;;5031852;28;20448;-45
2022/10/30 04:30:45;;;;;;;26.50;22.70;;;15.20;99.90;;;;;;5090501;22;20537;-49
2022/10/30 04:33:14;;;;;;;26.83;21.70;;;15.90;99.90;;;;;;5094051;28;20427;-49
2022/10/30 04:35:41;;;;;;;30.13;23.20;;;15.30;99.90;;;;;;5075553;28;20464;-49
2022/10/30 04:38:13;;;;;;;30.60;23.67;;;15.70;99.90;;;;;;5075463;28;20510;-49
2022/10/30 04:40:43;;;;;;;27.90;22.87;;;15.50;99.90;;;;;;5091772;28;20565;-49
2022/10/30 04:43:12;;;;;;;22.90;20.43;;;15.50;99.90;;;;;;5075597;28;20470;-49
2022/10/30 04:45:39;;;;;;;28.20;20.83;;;15.40;99.90;;;;;;5075071;28;20427;-49
2022/10/30 04:48:08;;;;;;;26.83;20.73;;;15.20;99.90;;;;;;5075312;28;20418;-49
2022/10/30 04:50:35;;;;;;;22.13;19.67;;;15.40;99.90;;;;;;5074676;28;20469;-49
2022/10/30 04:53:05;;;;;;;24.53;19.93;;;15.40;99.90;;;;;;5075006;28;20476;-49
2022/10/30 04:55:34;;;;;;;31.13;20.97;;;15.90;99.90;;;;;;5075096;28;20454;-49
2022/10/30 04:58:02;;;;;;;28.27;20.77;;;15.50;99.90;;;;;;5074959;28;20452;-50
2022/10/30 05:00:32;;;;;;;23.30;19.87;;;15.40;99.90;;;;;;5074544;28;20949;-49
2022/10/30 05:03:15;;;;;;;23.70;19.70;;;15.20;99.90;;;;;;5074386;28;20868;-49
2022/10/30 05:05:42;;;;;;;31.50;21.30;;;15.60;99.90;;;;;;5074777;28;20449;-50
2022/10/30 05:08:09;;;;;;;24.93;22.30;;;15.50;99.90;;;;;;5093525;28;20447;-49
2022/10/30 05:10:38;;;;;;;25.83;19.90;;;15.10;99.90;;;;;;5074394;28;20520;-49
2022/10/30 05:13:06;;;;;;;32.33;24.50;;;14.90;99.90;;;;;;5092749;28;20767;-49
2022/10/30 05:15:33;;;;;;;32.33;23.80;;;15.30;99.90;;;;;;5092639;28;20429;-50
2022/10/30 05:17:59;;;;;;;28.50;20.70;;;15.60;99.90;;;;;;5074058;28;20945;-50
2022/10/30 05:20:27;;;;;;;28.67;21.23;;;15.50;99.90;;;;;;5073992;28;20835;-49
2022/10/30 05:22:55;;;;;;;22.13;19.00;;;15.50;99.90;;;;;;5092540;28;20516;-49
2022/10/30 05:25:21;;;;;;;26.77;19.80;;;15.70;99.90;;;;;;5074321;28;20453;-50
2022/10/30 05:27:48;;;;;;;26.30;18.87;;;15.40;99.90;;;;;;5074226;28;20982;-50
2022/10/30 05:30:16;;;;;;;25.47;18.40;;;15.40;99.90;;;;;;5091756;28;20484;-49
2022/10/30 05:32:43;;;;;;;23.17;19.07;;;15.60;99.90;;;;;;5092198;28;20440;-49
2022/10/30 05:35:09;;;;;;;20.20;18.00;;;15.40;99.90;;;;;;5091152;28;20440;-49
2022/10/30 05:37:37;;;;;;;23.70;17.20;;;15.80;99.90;;;;;;5092853;28;20479;-49
2022/10/30 05:40:04;;;;;;;20.67;18.30;;;15.80;99.90;;;;;;5073778;28;20563;-49
2022/10/30 05:42:31;;;;;;;22.77;18.80;;;15.90;99.90;;;;;;5074204;28;20459;-49
2022/10/30 05:45:01;;;;;;;21.00;17.87;;;15.80;99.90;;;;;;5074249;28;20810;-49
2022/10/30 05:47:31;;;;;;;21.87;19.47;;;15.80;99.90;;;;;;5090721;28;20481;-50
2022/10/30 05:49:57;;;;;;;23.17;18.47;;;15.60;99.90;;;;;;5090326;28;20531;-50
2022/10/30 05:52:26;;;;;;;23.53;16.03;;;15.30;99.90;;;;;;5074143;28;20449;-49
2022/10/30 05:54:52;;;;;;;23.17;18.00;;;15.60;99.90;;;;;;5073998;28;20447;-49
2022/10/30 05:57:27;;;;;;;22.23;17.40;;;15.50;99.90;;;;;;5074076;28;20459;-49
2022/10/30 05:59:54;;;;;;;24.60;17.40;;;15.60;99.90;;;;;;5073528;28;20461;-49
2022/10/30 06:02:21;;;;;;;21.90;16.10;;;15.60;99.90;;;;;;5092058;28;20436;-50
2022/10/30 06:04:49;;;;;;;26.27;17.43;;;15.70;99.90;;;;;;5074234;28;20504;-49
2022/10/30 06:07:17;;;;;;;20.97;16.03;;;15.40;99.90;;;;;;5073787;28;20472;-50
2022/10/30 06:09:43;;;;;;;19.60;16.90;;;16.10;99.90;;;;;;5091692;28;20446;-49
2022/10/30 06:12:25;;;;;;;20.63;16.80;;;15.60;99.90;;;;;;5092156;28;20933;-50
2022/10/30 06:15:13;;;;;;;23.87;16.70;;;15.90;99.90;;;;;;5076314;28;20461;-50
2022/10/30 06:17:39;;;;;;;27.00;17.30;;;15.60;99.90;;;;;;5094723;28;20442;-49
2022/10/30 06:20:17;;;;;;;22.73;15.60;;;15.70;99.90;;;;;;5077411;28;20472;-50
2022/10/30 06:22:54;;;;;;;21.90;17.20;;;15.50;99.90;;;;;;5096277;28;20787;-49
2022/10/30 06:25:21;;;;;;;18.63;16.73;;;15.60;99.90;;;;;;5095979;28;20847;-49
2022/10/30 06:28:17;;;;;;;22.43;17.53;;;15.70;99.90;;;;;;5023172;28;20520;-49
2022/10/30 06:30:43;;;;;;;23.83;14.90;;;15.60;99.90;;;;;;5077288;28;21010;-49
2022/10/30 06:33:10;;;;;;;23.63;17.90;;;15.80;99.90;;;;;;5095633;28;20870;-49
2022/10/30 06:35:43;;;;;;;23.43;18.03;;;15.70;99.90;;;;;;5077640;28;20470;-49
2022/10/30 06:38:10;;;;;;;21.17;16.70;;;15.80;99.90;;;;;;5096022;28;20870;-49
2022/10/30 06:40:37;;;;;;;17.43;15.30;;;15.70;99.90;;;;;;5094121;28;20454;-49
2022/10/30 06:43:24;;;;;;;18.23;15.67;;;15.70;99.90;;;;;;5094853;28;20582;-49
2022/10/30 06:45:57;;;;;;;21.10;17.07;;;15.80;99.90;;;;;;5077307;28;20437;-49
2022/10/30 06:48:24;;;;;;;19.93;16.00;;;15.70;99.90;;;;;;5093871;28;21053;-49
2022/10/30 06:50:56;;;;;;;21.43;14.97;;;15.80;99.90;;;;;;5077136;28;20477;-50
2022/10/30 06:53:24;;;;;;;39.50;24.97;;;15.70;99.90;;;;;;5094075;28;20882;-50
2022/10/30 06:55:56;;;;;;;25.40;16.27;;;15.80;99.90;;;;;;5076946;28;20488;-49
2022/10/30 06:58:41;;;;;;;20.93;16.40;;;15.90;99.90;;;;;;5093507;28;20786;-49
2022/10/30 07:01:10;;;;;;;24.60;17.17;;;16.10;99.90;;;;;;5076762;28;20523;-49
2022/10/30 07:03:57;;;;;;;22.13;15.87;;;15.60;99.90;;;;;;5076826;28;20461;-49
2022/10/30 07:06:25;;;;;;;22.83;17.13;;;16.10;99.90;;;;;;5094893;28;20941;-50
2022/10/30 07:08:52;;;;;;;24.87;15.93;;;16.00;99.90;;;;;;5076557;28;20446;-50
2022/10/30 07:11:19;;;;;;;17.67;15.20;;;15.80;99.90;;;;;;5076839;28;20547;-49
2022/10/30 07:13:59;;;;;;;19.80;17.23;;;16.20;99.90;;;;;;5076765;28;20456;-49
2022/10/30 07:16:33;;;;;;;19.20;16.90;;;16.00;99.90;;;;;;5093534;28;20540;-49
2022/10/30 07:19:00;;;;;;;17.30;14.87;;;16.00;99.90;;;;;;5076293;28;20533;-50
2022/10/30 07:21:28;;;;;;;21.13;16.10;;;16.20;99.90;;;;;;5094891;28;20431;-50
2022/10/30 07:23:55;;;;;;;18.17;16.23;;;16.10;99.90;;;;;;5076719;28;20442;-49
2022/10/30 07:26:27;;;;;;;28.10;18.00;;;16.40;99.90;;;;;;5093098;28;20509;-49
2022/10/30 07:28:57;;;;;;;20.60;16.00;;;16.20;99.90;;;;;;5075875;28;20448;-49
2022/10/30 07:31:40;;;;;;;20.20;16.47;;;15.80;99.90;;;;;;5076175;28;20465;-49
2022/10/30 07:34:25;;;;;;;19.30;15.30;;;16.10;99.90;;;;;;5094542;28;20512;-49
2022/10/30 07:37:12;;;;;;;26.07;15.67;;;16.40;99.90;;;;;;5094793;28;21017;-50
2022/10/30 07:39:47;;;;;;;25.47;16.70;;;16.20;99.90;;;;;;5094023;28;20814;-50
2022/10/30 07:42:43;;;;;;;18.63;16.70;;;16.40;99.90;;;;;;5076229;28;20452;-49
2022/10/30 07:45:10;;;;;;;27.20;16.60;;;16.70;99.90;;;;;;5094235;28;20418;-49
2022/10/30 07:47:55;;;;;;;23.07;16.20;;;16.60;99.90;;;;;;5092850;28;20484;-49
2022/10/30 07:50:35;;;;;;;22.13;17.10;;;16.70;99.90;;;;;;5092611;28;20480;-49
2022/10/30 07:53:03;;;;;;;18.67;16.67;;;16.80;99.90;;;;;;5093046;28;20827;-49
2022/10/30 07:55:32;;;;;;;22.43;16.37;;;16.70;99.90;;;;;;5076017;28;20450;-49
2022/10/30 07:58:02;;;;;;;26.33;17.03;;;16.60;99.90;;;;;;5094141;28;20525;-49
2022/10/30 08:00:55;;;;;;;20.13;16.10;;;16.80;99.90;;;;;;5075899;28;20560;-49
2022/10/30 08:03:29;;;;;;;21.50;16.07;;;17.00;99.90;;;;;;5075884;28;20450;-50
2022/10/30 08:06:04;;;;;;;19.63;15.77;;;16.50;99.90;;;;;;5092636;28;20468;-50
2022/10/30 08:08:41;;;;;;;16.50;14.33;;;16.50;99.90;;;;;;5092116;28;20702;-50
2022/10/30 08:11:16;;;;;;;19.50;15.73;;;16.50;99.90;;;;;;5075598;28;20439;-49
2022/10/30 08:13:43;;;;;;;23.87;16.60;;;16.50;99.90;;;;;;5075563;28;20446;-50
2022/10/30 08:16:11;;;;;;;19.90;16.87;;;16.50;99.90;;;;;;5075357;28;20883;-49
2022/10/30 08:18:41;;;;;;;21.37;15.93;;;16.50;99.90;;;;;;5075207;28;20508;-49
2022/10/30 08:21:07;;;;;;;20.50;14.50;;;16.40;99.90;;;;;;5075307;28;20842;-50
2022/10/30 08:23:34;;;;;;;22.13;15.80;;;16.60;99.90;;;;;;5075077;28;20456;-50
2022/10/30 08:26:09;;;;;;;23.13;15.40;;;16.60;99.90;;;;;;5075179;28;20828;-50
2022/10/30 08:28:36;;;;;;;17.23;14.03;;;17.00;99.90;;;;;;5074586;28;20690;-49
2022/10/30 08:31:05;;;;;;;19.17;17.07;;;16.70;99.90;;;;;;5074806;28;20994;-49
2022/10/30 08:33:52;;;;;;;19.33;15.13;;;16.90;99.90;;;;;;5093068;28;20761;-49
2022/10/30 08:36:28;;;;;;;18.70;14.60;;;16.80;99.90;;;;;;5074500;28;20546;-50
2022/10/30 08:38:54;;;;;;;21.30;15.90;;;16.70;99.90;;;;;;5074103;28;20439;-49
2022/10/30 08:41:37;;;;;;;21.37;14.37;;;17.20;99.90;;;;;;5075308;28;20966;-48
2022/10/30 08:44:05;;;;;;;15.80;12.33;;;16.90;99.90;;;;;;5075285;28;20595;-48
2022/10/30 08:46:51;;;;;;;16.10;13.07;;;16.80;99.90;;;;;;5092980;28;20443;-48
2022/10/30 08:49:18;;;;;;;24.33;15.37;;;16.80;99.90;;;;;;5074350;28;20502;-49
2022/10/30 08:51:51;;;;;;;23.63;16.10;;;16.80;99.90;;;;;;5074950;28;20509;-50
2022/10/30 08:54:18;;;;;;;17.03;13.70;;;16.90;99.90;;;;;;5091702;28;20441;-49
2022/10/30 08:56:47;;;;;;;18.20;14.47;;;17.00;99.90;;;;;;5074510;28;20450;-49
2022/10/30 08:59:15;;;;;;;19.33;14.60;;;16.90;99.90;;;;;;5074202;28;20467;-49
2022/10/30 09:01:42;;;;;;;22.80;14.47;;;16.40;99.90;;;;;;5074546;28;20447;-49
2022/10/30 09:04:21;;;;;;;19.53;14.50;;;16.80;99.90;;;;;;5093063;28;20946;-49
2022/10/30 09:07:06;;;;;;;22.70;13.43;;;17.30;99.90;;;;;;5092599;28;20485;-49
2022/10/30 09:09:33;;;;;;;18.60;14.03;;;17.40;99.90;;;;;;5091911;28;20971;-49
2022/10/30 09:12:04;;;;;;;18.27;13.60;;;17.20;99.90;;;;;;5074059;28;20531;-49
2022/10/30 09:14:36;;;;;;;18.60;13.57;;;17.50;99.90;;;;;;5091298;28;20461;-49
2022/10/30 09:17:03;;;;;;;16.53;12.80;;;17.60;99.90;;;;;;5074108;28;20455;-50
2022/10/30 09:19:31;;;;;;;15.50;11.80;;;17.50;99.90;;;;;;5073993;28;20471;-50
2022/10/30 09:21:58;;;;;;;26.43;12.90;;;17.90;99.90;;;;;;5074047;28;20431;-50
2022/10/30 09:24:25;;;;;;;23.87;12.10;;;18.10;99.90;;;;;;5073759;28;20444;-50
2022/10/30 09:26:51;;;;;;;17.90;11.70;;;17.80;99.90;;;;;;5092257;28;20438;-49
2022/10/30 09:29:25;;;;;;;14.07;11.07;;;17.90;99.90;;;;;;5073648;28;20459;-50
2022/10/30 09:32:07;;;;;;;17.73;11.43;;;18.00;99.90;;;;;;5091398;28;20460;-50
2022/10/30 09:34:37;;;;;;;16.07;10.00;;;18.20;99.90;;;;;;5090792;28;20482;-50
2022/10/30 09:37:17;;;;;;;19.60;11.17;;;18.30;99.90;;;;;;5073562;28;20456;-49
2022/10/30 09:39:46;;;;;;;15.73;10.50;;;17.90;99.90;;;;;;5073571;28;20468;-49
2022/10/30 09:42:36;;;;;;;16.37;10.63;;;18.00;99.90;;;;;;5073620;28;20491;-50
2022/10/30 09:45:23;;;;;;;18.43;10.50;;;18.30;99.90;;;;;;5073617;28;20540;-50
2022/10/30 09:48:00;;;;;;;23.10;12.20;;;17.90;99.90;;;;;;5073782;28;20575;-49
2022/10/30 09:50:32;;;;;;;10.87;8.97;;;18.00;99.90;;;;;;5073409;28;20967;-50
2022/10/30 09:53:09;;;;;;;16.93;11.00;;;17.90;99.90;;;;;;5073807;28;20921;-50
2022/10/30 09:55:43;;;;;;;13.50;9.73;;;18.00;99.90;;;;;;5091842;28;20423;-50
2022/10/30 09:58:22;;;;;;;18.20;9.07;;;18.00;99.90;;;;;;5090345;28;20444;-49
2022/10/30 10:00:56;;;;;;;15.20;9.70;;;17.90;99.90;;;;;;5073531;28;20510;-50
2022/10/30 10:03:45;;;;;;;14.90;10.00;;;17.80;99.90;;;;;;5073495;28;20969;-50
2022/10/30 10:06:39;;;;;;;17.57;10.50;;;18.10;99.90;;;;;;5091150;28;20932;-48
2022/10/30 10:09:28;;;;;;;13.90;9.20;;;17.80;99.90;;;;;;5073171;28;21055;-50
2022/10/30 10:12:21;;;;;;;11.97;8.70;;;18.10;99.90;;;;;;5090363;28;20448;-50
2022/10/30 10:14:48;;;;;;;13.60;9.47;;;18.30;99.90;;;;;;5073469;28;20448;-49
2022/10/30 10:17:24;;;;;;;13.07;8.70;;;18.00;99.90;;;;;;5092185;28;20451;-48
2022/10/30 10:19:58;;;;;;;12.70;8.40;;;18.30;99.90;;;;;;5090804;28;20448;-49
2022/10/30 10:22:29;;;;;;;21.03;9.53;;;17.60;99.90;;;;;;5091333;28;20432;-49
2022/10/30 10:24:56;;;;;;;15.27;8.80;;;18.20;99.90;;;;;;5091602;28;20436;-49
2022/10/30 10:27:37;;;;;;;15.17;10.47;;;18.00;99.90;;;;;;5091203;28;20442;-49
2022/10/30 10:30:08;;;;;;;12.77;8.37;;;18.20;99.90;;;;;;5091433;28;20463;-50
2022/10/30 10:33:12;;;;;;;17.13;8.60;;;18.40;99.90;;;;;;5091796;28;20448;-49
2022/10/30 10:35:58;;;;;;;12.33;9.07;;;18.60;99.90;;;;;;5047503;28;20452;-50
2022/10/30 10:38:50;;;;;;;21.77;12.60;;;18.30;99.90;;;;;;5091531;28;20482;-49
2022/10/30 10:41:26;;;;;;;13.40;8.60;;;18.30;99.90;;;;;;5091795;28;20424;-49
2022/10/30 10:44:05;;;;;;;11.83;8.80;;;18.40;99.90;;;;;;5091295;28;20459;-49
2022/10/30 10:46:43;;;;;;;12.80;8.30;;;18.40;99.90;;;;;;5091194;28;20428;-50
2022/10/30 10:49:31;;;;;;;21.33;10.30;;;18.40;99.90;;;;;;5090490;28;20487;-50
2022/10/30 10:52:03;;;;;;;15.13;8.73;;;18.50;99.90;;;;;;5091347;28;20548;-50
2022/10/30 10:54:35;;;;;;;14.87;9.20;;;18.60;99.90;;;;;;5091223;28;20433;-50
2022/10/30 10:57:05;;;;;;;12.40;7.30;;;18.40;99.90;;;;;;5091217;28;20437;-50
2022/10/30 10:59:35;;;;;;;18.33;8.70;;;18.50;99.90;;;;;;5090345;28;20492;-50
2022/10/30 11:02:24;;;;;;;14.33;9.20;;;18.80;99.90;;;;;;5094612;28;20441;-50
2022/10/30 11:04:55;;;;;;;12.67;8.70;;;18.60;99.90;;;;;;5094816;28;20441;-49
2022/10/30 11:07:25;;;;;;;12.37;8.53;;;18.50;99.90;;;;;;5094503;28;20428;-49
2022/10/30 11:09:53;;;;;;;12.63;8.13;;;18.70;99.90;;;;;;5094467;28;20452;-50
2022/10/30 11:12:24;;;;;;;16.80;8.30;;;18.70;99.90;;;;;;5094528;28;20424;-49
2022/10/30 11:14:51;;;;;;;14.40;7.93;;;18.30;99.90;;;;;;5094457;28;20425;-49
2022/10/30 11:17:24;;;;;;;11.20;7.70;;;18.80;99.90;;;;;;5094558;28;20437;-48
2022/10/30 11:19:55;;;;;;;13.63;7.13;;;18.80;99.90;;;;;;5093965;28;20464;-49
2022/10/30 11:22:30;;;;;;;10.87;7.03;;;18.90;99.90;;;;;;5094397;28;20448;-48
2022/10/30 11:25:01;;;;;;;15.57;8.27;;;18.90;99.90;;;;;;5094220;28;20440;-49
2022/10/30 11:27:29;;;;;;;12.07;7.73;;;19.00;99.90;;;;;;5094190;28;20444;-49
2022/10/30 11:29:59;;;;;;;14.10;7.77;;;18.80;99.90;;;;;;5093150;28;20491;-49
2022/10/30 11:32:28;;;;;;;11.97;7.53;;;19.00;99.90;;;;;;5094251;28;20433;-49
2022/10/30 11:35:02;;;;;;;12.93;7.03;;;19.10;99.90;;;;;;5094122;28;20459;-49
2022/10/30 11:37:32;;;;;;;16.77;7.90;;;18.70;99.90;;;;;;5094028;28;20465;-49
2022/10/30 11:40:04;;;;;;;18.83;7.07;;;19.00;99.90;;;;;;5093842;28;20988;-48
2022/10/30 11:42:32;;;;;;;14.27;7.40;;;18.70;99.90;;;;;;5093950;28;20444;-48
2022/10/30 11:44:58;;;;;;;14.33;7.30;;;18.80;99.90;;;;;;5094564;28;20567;-49
2022/10/30 11:47:32;;;;;;;12.37;7.07;;;19.20;99.90;;;;;;5094396;28;20434;-48
2022/10/30 11:50:01;;;;;;;17.57;7.40;;;19.10;99.90;;;;;;5093566;28;20495;-48
2022/10/30 11:52:28;;;;;;;13.20;7.73;;;19.10;99.90;;;;;;5094515;28;20520;-48
2022/10/30 11:55:00;;;;;;;19.67;7.80;;;19.10;99.90;;;;;;5094161;28;20493;-48
2022/10/30 11:57:33;;;;;;;15.73;7.03;;;18.70;99.90;;;;;;5094150;28;20618;-49
2022/10/30 12:00:01;;;;;;;11.27;6.97;;;19.20;99.90;;;;;;5093489;28;20455;-50
2022/10/30 12:02:41;;;;;;;20.90;7.17;;;19.20;99.90;;;;;;5093846;28;20414;-49
2022/10/30 12:05:30;;;;;;;22.77;7.77;;;19.20;99.90;;;;;;5093635;28;20437;-49
2022/10/30 12:08:20;;;;;;;8.60;5.93;;;19.30;99.90;;;;;;5093619;28;20437;-48
2022/10/30 12:10:57;;;;;;;13.50;6.73;;;19.20;99.90;;;;;;5074850;28;20997;-54
2022/10/30 12:13:24;;;;;;;20.80;6.60;;;19.50;99.90;;;;;;5092671;28;20455;-50
2022/10/30 12:16:04;;;;;;;12.70;6.10;;;19.20;99.90;;;;;;5093080;28;20784;-49
2022/10/30 12:18:32;;;;;;;14.20;7.10;;;19.20;99.90;;;;;;5093441;28;20798;-49
2022/10/30 12:21:00;;;;;;;12.53;7.40;;;19.30;99.90;;;;;;5092703;28;20457;-49
2022/10/30 12:23:28;;;;;;;15.80;7.70;;;19.20;99.90;;;;;;5093151;28;20439;-49
2022/10/30 12:26:00;;;;;;;11.10;5.93;;;19.30;99.90;;;;;;5092970;28;20804;-49
2022/10/30 12:28:28;;;;;;;11.67;7.10;;;19.30;99.90;;;;;;5092377;28;20481;-48
2022/10/30 12:31:00;;;;;;;13.93;6.43;;;19.40;99.90;;;;;;5092856;28;20466;-49
2022/10/30 12:33:32;;;;;;;17.00;7.53;;;19.40;99.90;;;;;;5091475;28;20446;-49
2022/10/30 12:36:01;;;;;;;19.83;7.63;;;19.70;99.90;;;;;;5092872;28;20437;-49
2022/10/30 12:38:33;;;;;;;16.37;6.47;;;19.30;99.90;;;;;;5092710;28;20954;-48
2022/10/30 12:41:07;;;;;;;15.27;6.90;;;19.40;99.90;;;;;;5092751;28;20472;-48
2022/10/30 12:43:35;;;;;;;11.70;6.03;;;19.20;99.90;;;;;;5092407;28;20447;-49
2022/10/30 12:46:14;;;;;;;12.30;6.00;;;19.50;99.90;;;;;;5092346;28;20447;-49
2022/10/30 12:48:49;;;;;;;11.20;5.90;;;19.40;99.90;;;;;;5092485;28;20476;-49
2022/10/30 12:51:20;;;;;;;18.40;7.73;;;19.40;99.90;;;;;;5092964;28;20438;-49